sensor_id;sensor_type;location;lat;lon;timestamp;pressure;altitude;pressure_sealevel;temperature;humidity
3812;BME280;1921;49.368;11.068;2024-02-21T00:00:51;98555.69;;;8.30;75.10
3812;BME280;1921;49.368;11.068;2024-02-21T00:03:17;98537.53;;;8.20;75.12
3812;BME280;1921;49.368;11.068;2024-02-21T00:05:43;98510.06;;;7.89;75.42
3812;BME280;1921;49.368;11.068;2024-02-21T00:08:08;98566.63;;;8.24;75.44
3812;BME280;1921;49.368;11.068;2024-02-21T00:10:34;98518.00;;;7.97;75.60
3812;BME280;1921;49.368;11.068;2024-02-21T00:13:01;98520.03;;;8.03;75.39
3812;BME280;1921;49.368;11.068;2024-02-21T00:15:27;98533.72;;;8.15;75.37
3812;BME280;1921;49.368;11.068;2024-02-21T00:17:52;98531.47;;;8.20;75.33
3812;BME280;1921;49.368;11.068;2024-02-21T00:20:18;98568.16;;;8.46;75.66
3812;BME280;1921;49.368;11.068;2024-02-21T00:22:44;98534.78;;;8.22;75.64
3812;BME280;1921;49.368;11.068;2024-02-21T00:25:10;98392.75;;;7.37;75.42
3812;BME280;1921;49.368;11.068;2024-02-21T00:27:36;98548.72;;;8.30;75.83
3812;BME280;1921;49.368;11.068;2024-02-21T00:30:03;98505.53;;;8.00;76.04
3812;BME280;1921;49.368;11.068;2024-02-21T00:32:29;98486.00;;;7.87;76.26
3812;BME280;1921;49.368;11.068;2024-02-21T00:34:54;98502.69;;;8.03;76.43
3812;BME280;1921;49.368;11.068;2024-02-21T00:37:20;98570.34;;;8.41;76.24
3812;BME280;1921;49.368;11.068;2024-02-21T00:39:46;98516.59;;;8.12;76.29
3812;BME280;1921;49.368;11.068;2024-02-21T00:42:11;98488.63;;;7.96;76.32
3812;BME280;1921;49.368;11.068;2024-02-21T00:44:37;98483.97;;;7.90;76.60
3812;BME280;1921;49.368;11.068;2024-02-21T00:47:03;98546.66;;;8.34;76.55
3812;BME280;1921;49.368;11.068;2024-02-21T00:49:29;98530.94;;;8.26;76.69
3812;BME280;1921;49.368;11.068;2024-02-21T00:51:54;98464.69;;;7.93;76.22
3812;BME280;1921;49.368;11.068;2024-02-21T00:54:20;98478.19;;;8.06;76.33
3812;BME280;1921;49.368;11.068;2024-02-21T00:56:46;98482.31;;;8.08;76.16
3812;BME280;1921;49.368;11.068;2024-02-21T00:59:12;98464.28;;;7.97;76.08
3812;BME280;1921;49.368;11.068;2024-02-21T01:01:38;98481.88;;;8.13;76.24
3812;BME280;1921;49.368;11.068;2024-02-21T01:04:04;98485.56;;;8.20;76.36
3812;BME280;1921;49.368;11.068;2024-02-21T01:06:29;98479.97;;;8.15;75.75
3812;BME280;1921;49.368;11.068;2024-02-21T01:08:55;98499.63;;;8.27;76.23
3812;BME280;1921;49.368;11.068;2024-02-21T01:11:21;98503.19;;;8.36;75.47
3812;BME280;1921;49.368;11.068;2024-02-21T01:13:46;98460.41;;;8.11;75.79
3812;BME280;1921;49.368;11.068;2024-02-21T01:16:12;98483.38;;;8.16;76.22
3812;BME280;1921;49.368;11.068;2024-02-21T01:18:38;98460.56;;;8.09;76.19
3812;BME280;1921;49.368;11.068;2024-02-21T01:21:05;98454.28;;;8.02;76.46
3812;BME280;1921;49.368;11.068;2024-02-21T01:23:34;98446.81;;;7.90;77.00
3812;BME280;1921;49.368;11.068;2024-02-21T01:26:00;98452.78;;;8.00;76.97
3812;BME280;1921;49.368;11.068;2024-02-21T01:28:25;98445.28;;;7.97;77.28
3812;BME280;1921;49.368;11.068;2024-02-21T01:30:51;98424.41;;;7.79;77.08
3812;BME280;1921;49.368;11.068;2024-02-21T01:33:17;98496.47;;;8.24;77.39
3812;BME280;1921;49.368;11.068;2024-02-21T01:35:43;98442.41;;;7.90;77.57
3812;BME280;1921;49.368;11.068;2024-02-21T01:38:09;98445.44;;;7.95;76.95
3812;BME280;1921;49.368;11.068;2024-02-21T01:40:36;98421.25;;;7.85;77.55
3812;BME280;1921;49.368;11.068;2024-02-21T01:43:06;98437.50;;;7.97;77.12
3812;BME280;1921;49.368;11.068;2024-02-21T01:45:40;98449.75;;;8.14;76.96
3812;BME280;1921;49.368;11.068;2024-02-21T01:48:06;98467.47;;;8.28;77.48
3812;BME280;1921;49.368;11.068;2024-02-21T01:50:32;98430.19;;;8.10;77.27
3812;BME280;1921;49.368;11.068;2024-02-21T01:52:59;98458.06;;;8.27;77.42
3812;BME280;1921;49.368;11.068;2024-02-21T01:55:25;98410.94;;;8.03;77.79
3812;BME280;1921;49.368;11.068;2024-02-21T01:57:51;98459.94;;;8.35;77.94
3812;BME280;1921;49.368;11.068;2024-02-21T02:00:17;98404.41;;;7.99;77.69
3812;BME280;1921;49.368;11.068;2024-02-21T02:02:44;98358.69;;;7.69;78.05
3812;BME280;1921;49.368;11.068;2024-02-21T02:05:11;98396.59;;;7.99;77.92
3812;BME280;1921;49.368;11.068;2024-02-21T02:07:37;98407.25;;;8.05;77.71
3812;BME280;1921;49.368;11.068;2024-02-21T02:10:03;98424.03;;;8.11;78.00
3812;BME280;1921;49.368;11.068;2024-02-21T02:12:31;98446.97;;;8.25;78.38
3812;BME280;1921;49.368;11.068;2024-02-21T02:15:04;98378.59;;;7.88;77.91
3812;BME280;1921;49.368;11.068;2024-02-21T02:17:30;98385.97;;;7.92;77.84
3812;BME280;1921;49.368;11.068;2024-02-21T02:19:56;98392.38;;;7.98;78.41
3812;BME280;1921;49.368;11.068;2024-02-21T02:22:27;98398.47;;;8.06;78.12
3812;BME280;1921;49.368;11.068;2024-02-21T02:24:54;98452.41;;;8.42;77.90
3812;BME280;1921;49.368;11.068;2024-02-21T02:27:19;98400.97;;;8.08;78.11
3812;BME280;1921;49.368;11.068;2024-02-21T02:29:45;98369.00;;;7.98;77.99
3812;BME280;1921;49.368;11.068;2024-02-21T02:32:12;98393.41;;;8.15;78.34
3812;BME280;1921;49.368;11.068;2024-02-21T02:34:38;98387.41;;;8.14;78.00
3812;BME280;1921;49.368;11.068;2024-02-21T02:37:03;98382.88;;;8.16;78.19
3812;BME280;1921;49.368;11.068;2024-02-21T02:40:03;98330.63;;;7.82;78.13
3812;BME280;1921;49.368;11.068;2024-02-21T02:42:29;98388.59;;;8.20;78.35
3812;BME280;1921;49.368;11.068;2024-02-21T02:44:55;98372.88;;;8.21;78.48
3812;BME280;1921;49.368;11.068;2024-02-21T02:47:22;98371.25;;;8.20;78.42
3812;BME280;1921;49.368;11.068;2024-02-21T02:49:48;98381.84;;;8.36;78.31
3812;BME280;1921;49.368;11.068;2024-02-21T02:52:17;98336.03;;;8.08;78.06
3812;BME280;1921;49.368;11.068;2024-02-21T02:54:44;98298.13;;;7.78;77.98
3812;BME280;1921;49.368;11.068;2024-02-21T02:57:10;98380.53;;;8.23;78.53
3812;BME280;1921;49.368;11.068;2024-02-21T02:59:36;98362.09;;;8.16;78.81
3812;BME280;1921;49.368;11.068;2024-02-21T03:02:01;98369.59;;;8.19;78.54
3812;BME280;1921;49.368;11.068;2024-02-21T03:04:27;98390.50;;;8.27;78.53
3812;BME280;1921;49.368;11.068;2024-02-21T03:06:53;98328.69;;;7.94;78.94
3812;BME280;1921;49.368;11.068;2024-02-21T03:09:19;98391.88;;;8.22;79.04
3812;BME280;1921;49.368;11.068;2024-02-21T03:11:44;98331.44;;;7.92;78.92
3812;BME280;1921;49.368;11.068;2024-02-21T03:14:10;98341.38;;;7.97;79.36
3812;BME280;1921;49.368;11.068;2024-02-21T03:16:37;98327.47;;;7.88;79.53
3812;BME280;1921;49.368;11.068;2024-02-21T03:19:02;98344.38;;;8.02;79.16
3812;BME280;1921;49.368;11.068;2024-02-21T03:21:28;98326.38;;;7.91;79.54
3812;BME280;1921;49.368;11.068;2024-02-21T03:23:54;98342.47;;;8.04;79.57
3812;BME280;1921;49.368;11.068;2024-02-21T03:26:20;98372.56;;;8.24;79.19
3812;BME280;1921;49.368;11.068;2024-02-21T03:28:46;98385.69;;;8.32;79.23
3812;BME280;1921;49.368;11.068;2024-02-21T03:31:12;98330.44;;;8.03;79.50
3812;BME280;1921;49.368;11.068;2024-02-21T03:33:41;98315.56;;;7.95;79.74
3812;BME280;1921;49.368;11.068;2024-02-21T03:36:14;98326.78;;;7.96;79.58
3812;BME280;1921;49.368;11.068;2024-02-21T03:38:40;98366.06;;;8.20;79.79
3812;BME280;1921;49.368;11.068;2024-02-21T03:41:06;98373.97;;;8.19;79.91
3812;BME280;1921;49.368;11.068;2024-02-21T03:43:31;98335.22;;;7.98;79.57
3812;BME280;1921;49.368;11.068;2024-02-21T03:45:57;98348.47;;;8.04;80.11
3812;BME280;1921;49.368;11.068;2024-02-21T03:48:23;98331.16;;;7.95;80.21
3812;BME280;1921;49.368;11.068;2024-02-21T03:50:48;98368.78;;;8.19;80.10
3812;BME280;1921;49.368;11.068;2024-02-21T03:53:14;98387.75;;;8.29;79.56
3812;BME280;1921;49.368;11.068;2024-02-21T03:55:40;98327.03;;;7.93;80.19
3812;BME280;1921;49.368;11.068;2024-02-21T03:58:06;98335.78;;;8.01;80.57
3812;BME280;1921;49.368;11.068;2024-02-21T04:00:31;98339.03;;;8.03;79.76
3812;BME280;1921;49.368;11.068;2024-02-21T04:02:57;98360.47;;;8.05;80.64
3812;BME280;1921;49.368;11.068;2024-02-21T04:05:23;98380.78;;;8.29;80.58
3812;BME280;1921;49.368;11.068;2024-02-21T04:07:48;98353.19;;;8.19;80.40
3812;BME280;1921;49.368;11.068;2024-02-21T04:10:14;98279.56;;;7.73;80.09
3812;BME280;1921;49.368;11.068;2024-02-21T04:12:40;98322.63;;;8.03;79.89
3812;BME280;1921;49.368;11.068;2024-02-21T04:15:06;98358.75;;;8.33;79.59
3812;BME280;1921;49.368;11.068;2024-02-21T04:17:31;98348.63;;;8.30;80.08
3812;BME280;1921;49.368;11.068;2024-02-21T04:20:04;98285.50;;;7.93;79.89
3812;BME280;1921;49.368;11.068;2024-02-21T04:22:31;98318.00;;;8.24;79.87
3812;BME280;1921;49.368;11.068;2024-02-21T04:25:00;98266.34;;;7.94;79.17
3812;BME280;1921;49.368;11.068;2024-02-21T04:27:26;98309.13;;;8.27;79.38
3812;BME280;1921;49.368;11.068;2024-02-21T04:29:52;98330.69;;;8.37;79.34
3812;BME280;1921;49.368;11.068;2024-02-21T04:32:18;98275.31;;;8.09;78.95
3812;BME280;1921;49.368;11.068;2024-02-21T04:34:44;98275.59;;;8.06;79.01
3812;BME280;1921;49.368;11.068;2024-02-21T04:37:10;98350.72;;;8.54;78.41
3812;BME280;1921;49.368;11.068;2024-02-21T04:39:35;98264.53;;;8.04;78.44
3812;BME280;1921;49.368;11.068;2024-02-21T04:42:01;98262.16;;;8.10;78.58
3812;BME280;1921;49.368;11.068;2024-02-21T04:44:27;98316.59;;;8.40;79.09
3812;BME280;1921;49.368;11.068;2024-02-21T04:46:53;98330.22;;;8.51;79.82
3812;BME280;1921;49.368;11.068;2024-02-21T04:49:18;98275.31;;;8.09;80.51
3812;BME280;1921;49.368;11.068;2024-02-21T04:51:45;98278.63;;;8.01;81.14
3812;BME280;1921;49.368;11.068;2024-02-21T04:54:11;98315.41;;;8.24;82.35
3812;BME280;1921;49.368;11.068;2024-02-21T04:56:36;98251.41;;;7.78;83.08
3812;BME280;1921;49.368;11.068;2024-02-21T04:59:02;98263.03;;;7.74;83.63
3812;BME280;1921;49.368;11.068;2024-02-21T05:01:28;98320.84;;;8.03;84.52
3812;BME280;1921;49.368;11.068;2024-02-21T05:03:54;98273.72;;;7.71;84.75
3812;BME280;1921;49.368;11.068;2024-02-21T05:06:20;98288.72;;;7.77;86.24
3812;BME280;1921;49.368;11.068;2024-02-21T05:08:46;98270.56;;;7.67;86.37
3812;BME280;1921;49.368;11.068;2024-02-21T05:11:13;98309.34;;;7.78;86.72
3812;BME280;1921;49.368;11.068;2024-02-21T05:13:39;98208.44;;;7.19;86.78
3812;BME280;1921;49.368;11.068;2024-02-21T05:16:05;98227.00;;;7.34;87.06
3812;BME280;1921;49.368;11.068;2024-02-21T05:18:32;98214.44;;;7.29;87.29
3812;BME280;1921;49.368;11.068;2024-02-21T05:20:59;98298.72;;;7.72;86.69
3812;BME280;1921;49.368;11.068;2024-02-21T05:23:25;98260.09;;;7.59;87.03
3812;BME280;1921;49.368;11.068;2024-02-21T05:25:51;98252.47;;;7.48;87.53
3812;BME280;1921;49.368;11.068;2024-02-21T05:28:16;98222.63;;;7.34;87.18
3812;BME280;1921;49.368;11.068;2024-02-21T05:30:42;98258.31;;;7.50;87.36
3812;BME280;1921;49.368;11.068;2024-02-21T05:33:09;98237.63;;;7.31;87.64
3812;BME280;1921;49.368;11.068;2024-02-21T05:35:35;98234.94;;;7.22;88.17
3812;BME280;1921;49.368;11.068;2024-02-21T05:38:02;98292.75;;;7.52;88.46
3812;BME280;1921;49.368;11.068;2024-02-21T05:40:32;98227.16;;;7.13;88.74
3812;BME280;1921;49.368;11.068;2024-02-21T05:42:57;98255.38;;;7.25;88.48
3812;BME280;1921;49.368;11.068;2024-02-21T05:45:23;98218.59;;;7.03;88.40
3812;BME280;1921;49.368;11.068;2024-02-21T05:47:49;98211.91;;;7.00;88.86
3812;BME280;1921;49.368;11.068;2024-02-21T05:50:15;98243.94;;;7.18;88.70
3812;BME280;1921;49.368;11.068;2024-02-21T05:52:41;98239.31;;;7.12;87.80
3812;BME280;1921;49.368;11.068;2024-02-21T05:55:07;98216.13;;;7.01;88.59
3812;BME280;1921;49.368;11.068;2024-02-21T05:57:34;98193.78;;;6.90;88.46
3812;BME280;1921;49.368;11.068;2024-02-21T06:00:00;98210.69;;;6.94;88.76
3812;BME280;1921;49.368;11.068;2024-02-21T06:02:25;98220.50;;;7.00;88.82
3812;BME280;1921;49.368;11.068;2024-02-21T06:04:51;98241.78;;;7.04;89.24
3812;BME280;1921;49.368;11.068;2024-02-21T06:07:17;98182.22;;;6.65;89.08
3812;BME280;1921;49.368;11.068;2024-02-21T06:09:42;98266.47;;;7.18;89.21
3812;BME280;1921;49.368;11.068;2024-02-21T06:12:08;98214.38;;;6.82;89.11
3812;BME280;1921;49.368;11.068;2024-02-21T06:14:34;98264.03;;;7.16;89.84
3812;BME280;1921;49.368;11.068;2024-02-21T06:16:59;98205.94;;;6.70;89.69
3812;BME280;1921;49.368;11.068;2024-02-21T06:19:25;98208.41;;;6.72;89.62
3812;BME280;1921;49.368;11.068;2024-02-21T06:21:51;98259.13;;;7.04;89.96
3812;BME280;1921;49.368;11.068;2024-02-21T06:24:17;98235.25;;;6.81;90.42
3812;BME280;1921;49.368;11.068;2024-02-21T06:26:43;98197.91;;;6.54;90.72
3812;BME280;1921;49.368;11.068;2024-02-21T06:29:11;98204.06;;;6.53;90.35
3812;BME280;1921;49.368;11.068;2024-02-21T06:31:36;98220.53;;;6.62;90.51
3812;BME280;1921;49.368;11.068;2024-02-21T06:34:02;98242.50;;;6.67;90.61
3812;BME280;1921;49.368;11.068;2024-02-21T06:36:28;98227.25;;;6.55;90.58
3812;BME280;1921;49.368;11.068;2024-02-21T06:38:53;98210.34;;;6.41;90.99
3812;BME280;1921;49.368;11.068;2024-02-21T06:41:19;98277.16;;;6.86;91.90
3812;BME280;1921;49.368;11.068;2024-02-21T06:43:46;98261.34;;;6.79;91.48
3812;BME280;1921;49.368;11.068;2024-02-21T06:46:12;98222.31;;;6.61;91.80
3812;BME280;1921;49.368;11.068;2024-02-21T06:48:38;98212.91;;;6.60;92.07
3812;BME280;1921;49.368;11.068;2024-02-21T06:51:04;98284.47;;;7.19;92.31
3812;BME280;1921;49.368;11.068;2024-02-21T06:53:30;98252.44;;;7.11;92.45
3812;BME280;1921;49.368;11.068;2024-02-21T06:55:55;98219.94;;;7.07;92.06
3812;BME280;1921;49.368;11.068;2024-02-21T06:58:21;98281.41;;;7.53;91.86
3812;BME280;1921;49.368;11.068;2024-02-21T07:00:47;98242.41;;;7.35;91.00
3812;BME280;1921;49.368;11.068;2024-02-21T07:03:12;98266.50;;;7.55;90.61
3812;BME280;1921;49.368;11.068;2024-02-21T07:05:38;98240.63;;;7.36;90.09
3812;BME280;1921;49.368;11.068;2024-02-21T07:08:04;98240.06;;;7.42;89.64
3812;BME280;1921;49.368;11.068;2024-02-21T07:10:30;98286.25;;;7.75;89.57
3812;BME280;1921;49.368;11.068;2024-02-21T07:12:56;98282.97;;;7.73;89.39
3812;BME280;1921;49.368;11.068;2024-02-21T07:15:21;98232.53;;;7.48;89.88
3812;BME280;1921;49.368;11.068;2024-02-21T07:17:47;98212.16;;;7.53;90.73
3812;BME280;1921;49.368;11.068;2024-02-21T07:20:13;98284.34;;;8.05;91.29
3812;BME280;1921;49.368;11.068;2024-02-21T07:22:38;98225.63;;;7.94;90.17
3812;BME280;1921;49.368;11.068;2024-02-21T07:25:05;98224.59;;;8.05;89.69
3812;BME280;1921;49.368;11.068;2024-02-21T07:27:31;98252.03;;;8.35;89.10
3812;BME280;1921;49.368;11.068;2024-02-21T07:29:57;98223.44;;;8.35;87.58
3812;BME280;1921;49.368;11.068;2024-02-21T07:32:23;98236.56;;;8.61;87.16
3812;BME280;1921;49.368;11.068;2024-02-21T07:34:49;98236.56;;;8.61;83.27
3812;BME280;1921;49.368;11.068;2024-02-21T07:37:14;98229.06;;;8.76;85.15
3812;BME280;1921;49.368;11.068;2024-02-21T07:39:41;98220.16;;;9.04;84.83
3812;BME280;1921;49.368;11.068;2024-02-21T07:42:06;98195.28;;;9.02;81.98
3812;BME280;1921;49.368;11.068;2024-02-21T07:44:32;98139.34;;;8.80;81.11
3812;BME280;1921;49.368;11.068;2024-02-21T07:46:59;98198.59;;;9.46;76.88
3812;BME280;1921;49.368;11.068;2024-02-21T07:49:25;98237.97;;;9.77;77.11
3812;BME280;1921;49.368;11.068;2024-02-21T07:51:51;98221.28;;;9.96;78.99
3812;BME280;1921;49.368;11.068;2024-02-21T07:54:17;98252.72;;;10.53;74.56
3812;BME280;1921;49.368;11.068;2024-02-21T07:56:43;98220.09;;;10.41;73.65
3812;BME280;1921;49.368;11.068;2024-02-21T07:59:09;98219.16;;;10.58;71.42
3812;BME280;1921;49.368;11.068;2024-02-21T08:01:35;98194.69;;;10.51;70.14
3812;BME280;1921;49.368;11.068;2024-02-21T08:04:00;98211.16;;;10.51;68.74
3812;BME280;1921;49.368;11.068;2024-02-21T08:06:26;98203.34;;;10.43;69.62
3812;BME280;1921;49.368;11.068;2024-02-21T08:08:52;98200.72;;;10.60;68.32
3812;BME280;1921;49.368;11.068;2024-02-21T08:11:18;98173.84;;;10.51;68.54
3812;BME280;1921;49.368;11.068;2024-02-21T08:13:44;98171.88;;;10.61;68.85
3812;BME280;1921;49.368;11.068;2024-02-21T08:16:09;98179.03;;;10.84;68.64
3812;BME280;1921;49.368;11.068;2024-02-21T08:18:35;98219.63;;;11.19;67.11
3812;BME280;1921;49.368;11.068;2024-02-21T08:21:04;98211.59;;;11.28;65.16
3812;BME280;1921;49.368;11.068;2024-02-21T08:23:29;98195.84;;;11.53;66.02
3812;BME280;1921;49.368;11.068;2024-02-21T08:25:55;98159.22;;;11.69;64.18
3812;BME280;1921;49.368;11.068;2024-02-21T08:28:21;98180.84;;;12.25;63.86
3812;BME280;1921;49.368;11.068;2024-02-21T08:30:47;98169.16;;;12.36;60.74
3812;BME280;1921;49.368;11.068;2024-02-21T08:33:16;98152.53;;;12.66;60.87
3812;BME280;1921;49.368;11.068;2024-02-21T08:35:44;98148.50;;;12.64;59.20
3812;BME280;1921;49.368;11.068;2024-02-21T08:38:10;98140.13;;;12.69;58.04
3812;BME280;1921;49.368;11.068;2024-02-21T08:40:36;98179.69;;;12.88;58.14
3812;BME280;1921;49.368;11.068;2024-02-21T08:43:02;98170.72;;;12.68;58.56
3812;BME280;1921;49.368;11.068;2024-02-21T08:45:29;98164.41;;;12.54;59.84
3812;BME280;1921;49.368;11.068;2024-02-21T08:47:54;98201.97;;;13.22;60.85
3812;BME280;1921;49.368;11.068;2024-02-21T08:50:20;98151.38;;;13.22;56.61
3812;BME280;1921;49.368;11.068;2024-02-21T08:52:46;98206.84;;;13.69;56.50
3812;BME280;1921;49.368;11.068;2024-02-21T08:55:12;98117.34;;;13.36;56.47
3812;BME280;1921;49.368;11.068;2024-02-21T08:57:37;98141.16;;;13.56;54.61
3812;BME280;1921;49.368;11.068;2024-02-21T09:00:07;98194.13;;;13.66;54.72
3812;BME280;1921;49.368;11.068;2024-02-21T09:02:39;98109.38;;;13.15;54.60
3812;BME280;1921;49.368;11.068;2024-02-21T09:05:05;98129.97;;;13.18;55.11
3812;BME280;1921;49.368;11.068;2024-02-21T09:07:31;98150.97;;;13.10;56.03
3812;BME280;1921;49.368;11.068;2024-02-21T09:09:57;98166.28;;;13.21;55.38
3812;BME280;1921;49.368;11.068;2024-02-21T09:12:22;98140.16;;;13.13;55.48
3812;BME280;1921;49.368;11.068;2024-02-21T09:14:48;98130.09;;;13.25;54.68
3812;BME280;1921;49.368;11.068;2024-02-21T09:17:16;98132.88;;;12.71;55.77
3812;BME280;1921;49.368;11.068;2024-02-21T09:19:47;98149.47;;;13.01;55.08
3812;BME280;1921;49.368;11.068;2024-02-21T09:22:14;98124.75;;;13.33;53.99
3812;BME280;1921;49.368;11.068;2024-02-21T09:24:40;98125.66;;;14.12;53.60
3812;BME280;1921;49.368;11.068;2024-02-21T09:27:05;98123.53;;;14.44;52.01
3812;BME280;1921;49.368;11.068;2024-02-21T09:29:32;98119.44;;;15.19;49.01
3812;BME280;1921;49.368;11.068;2024-02-21T09:31:59;98117.53;;;15.41;47.56
3812;BME280;1921;49.368;11.068;2024-02-21T09:34:25;98091.47;;;15.04;47.54
3812;BME280;1921;49.368;11.068;2024-02-21T09:36:52;98097.50;;;14.70;47.91
3812;BME280;1921;49.368;11.068;2024-02-21T09:39:19;98122.41;;;14.53;49.19
3812;BME280;1921;49.368;11.068;2024-02-21T09:41:53;98100.16;;;15.05;48.15
3812;BME280;1921;49.368;11.068;2024-02-21T09:44:21;98098.47;;;15.32;47.26
3812;BME280;1921;49.368;11.068;2024-02-21T09:46:57;98113.63;;;15.30;46.51
3812;BME280;1921;49.368;11.068;2024-02-21T09:49:33;98084.38;;;14.98;47.32
3812;BME280;1921;49.368;11.068;2024-02-21T09:52:01;98153.63;;;15.25;47.33
3812;BME280;1921;49.368;11.068;2024-02-21T09:54:30;98094.81;;;15.26;47.79
3812;BME280;1921;49.368;11.068;2024-02-21T09:57:00;98142.16;;;15.74;46.54
3812;BME280;1921;49.368;11.068;2024-02-21T09:59:28;98125.38;;;15.75;47.07
3812;BME280;1921;49.368;11.068;2024-02-21T10:01:55;98099.50;;;15.72;47.33
3812;BME280;1921;49.368;11.068;2024-02-21T10:04:21;98096.66;;;15.74;45.79
3812;BME280;1921;49.368;11.068;2024-02-21T10:06:47;98076.66;;;15.93;46.32
3812;BME280;1921;49.368;11.068;2024-02-21T10:09:26;98094.09;;;16.33;46.11
3812;BME280;1921;49.368;11.068;2024-02-21T10:11:56;98123.50;;;16.77;45.04
3812;BME280;1921;49.368;11.068;2024-02-21T10:14:32;98110.50;;;16.95;45.14
3812;BME280;1921;49.368;11.068;2024-02-21T10:16:58;98095.13;;;16.92;44.47
3812;BME280;1921;49.368;11.068;2024-02-21T10:19:29;98068.38;;;16.82;44.03
3812;BME280;1921;49.368;11.068;2024-02-21T10:22:06;98092.28;;;16.93;44.20
3812;BME280;1921;49.368;11.068;2024-02-21T10:24:36;98075.25;;;17.03;43.37
3812;BME280;1921;49.368;11.068;2024-02-21T10:27:08;98074.81;;;17.12;43.25
3812;BME280;1921;49.368;11.068;2024-02-21T10:29:37;98046.91;;;17.43;42.24
3812;BME280;1921;49.368;11.068;2024-02-21T10:32:13;98061.16;;;17.80;41.96
3812;BME280;1921;49.368;11.068;2024-02-21T10:34:41;98076.75;;;18.13;40.87
3812;BME280;1921;49.368;11.068;2024-02-21T10:37:11;98068.59;;;18.21;40.99
3812;BME280;1921;49.368;11.068;2024-02-21T10:39:43;98025.13;;;18.24;40.10
3812;BME280;1921;49.368;11.068;2024-02-21T10:42:14;98057.19;;;18.96;40.17
3812;BME280;1921;49.368;11.068;2024-02-21T10:44:43;98037.88;;;19.14;38.84
3812;BME280;1921;49.368;11.068;2024-02-21T10:47:11;98052.81;;;18.65;38.94
3812;BME280;1921;49.368;11.068;2024-02-21T10:49:41;98061.44;;;18.53;39.59
3812;BME280;1921;49.368;11.068;2024-02-21T10:54:59;98057.31;;;17.31;41.21
3812;BME280;1921;49.368;11.068;2024-02-21T10:57:27;97980.53;;;16.43;42.08
3812;BME280;1921;49.368;11.068;2024-02-21T10:59:56;98007.06;;;16.35;44.40
3812;BME280;1921;49.368;11.068;2024-02-21T11:02:24;98045.09;;;16.65;43.51
3812;BME280;1921;49.368;11.068;2024-02-21T11:04:50;98044.47;;;16.77;43.34
3812;BME280;1921;49.368;11.068;2024-02-21T11:07:18;97977.44;;;16.73;42.88
3812;BME280;1921;49.368;11.068;2024-02-21T11:09:52;97997.19;;;17.02;43.17
3812;BME280;1921;49.368;11.068;2024-02-21T11:12:21;97997.81;;;17.04;42.17
3812;BME280;1921;49.368;11.068;2024-02-21T11:14:48;98040.97;;;17.54;42.28
3812;BME280;1921;49.368;11.068;2024-02-21T11:17:18;97975.97;;;17.35;41.46
3812;BME280;1921;49.368;11.068;2024-02-21T11:19:45;98009.50;;;17.59;40.47
3812;BME280;1921;49.368;11.068;2024-02-21T11:22:18;97983.81;;;17.10;41.70
3812;BME280;1921;49.368;11.068;2024-02-21T11:24:45;97973.66;;;17.45;41.25
3812;BME280;1921;49.368;11.068;2024-02-21T11:27:21;97946.91;;;17.80;40.76
3812;BME280;1921;49.368;11.068;2024-02-21T11:29:56;97974.38;;;18.22;40.17
3812;BME280;1921;49.368;11.068;2024-02-21T11:32:22;97977.38;;;18.00;39.78
3812;BME280;1921;49.368;11.068;2024-02-21T11:35:01;97986.06;;;18.33;39.90
3812;BME280;1921;49.368;11.068;2024-02-21T11:37:32;97846.66;;;17.98;38.96
3812;BME280;1921;49.368;11.068;2024-02-21T11:39:59;97943.56;;;19.26;37.15
3812;BME280;1921;49.368;11.068;2024-02-21T11:42:27;97942.19;;;19.65;36.65
3812;BME280;1921;49.368;11.068;2024-02-21T11:44:53;97940.50;;;19.71;36.28
3812;BME280;1921;49.368;11.068;2024-02-21T11:47:22;97933.84;;;19.92;36.20
3812;BME280;1921;49.368;11.068;2024-02-21T11:49:49;97939.22;;;19.73;36.11
3812;BME280;1921;49.368;11.068;2024-02-21T11:52:22;97945.06;;;19.33;36.24
3812;BME280;1921;49.368;11.068;2024-02-21T11:54:51;97933.31;;;18.99;36.71
3812;BME280;1921;49.368;11.068;2024-02-21T11:57:18;97942.94;;;18.94;37.13
3812;BME280;1921;49.368;11.068;2024-02-21T11:59:47;97947.94;;;19.62;37.16
3812;BME280;1921;49.368;11.068;2024-02-21T12:02:14;97891.28;;;19.40;36.75
3812;BME280;1921;49.368;11.068;2024-02-21T12:04:40;97933.47;;;19.76;36.28
3812;BME280;1921;49.368;11.068;2024-02-21T12:07:07;97912.16;;;19.59;36.21
3812;BME280;1921;49.368;11.068;2024-02-21T12:09:34;97906.13;;;19.52;37.30
3812;BME280;1921;49.368;11.068;2024-02-21T12:12:05;97895.47;;;19.59;37.15
3812;BME280;1921;49.368;11.068;2024-02-21T12:14:33;97843.88;;;19.50;36.73
3812;BME280;1921;49.368;11.068;2024-02-21T12:17:00;97876.41;;;20.04;36.15
3812;BME280;1921;49.368;11.068;2024-02-21T12:19:30;97848.19;;;19.86;36.30
3812;BME280;1921;49.368;11.068;2024-02-21T12:21:59;97889.88;;;20.14;35.43
3812;BME280;1921;49.368;11.068;2024-02-21T12:24:26;97828.84;;;19.50;35.89
3812;BME280;1921;49.368;11.068;2024-02-21T12:26:53;97847.19;;;19.63;35.66
3812;BME280;1921;49.368;11.068;2024-02-21T12:29:23;97849.19;;;19.50;34.91
3812;BME280;1921;49.368;11.068;2024-02-21T12:31:52;97841.53;;;19.18;36.12
3812;BME280;1921;49.368;11.068;2024-02-21T12:34:20;97830.22;;;18.99;36.33
3812;BME280;1921;49.368;11.068;2024-02-21T12:36:47;97875.50;;;18.54;37.76
3812;BME280;1921;49.368;11.068;2024-02-21T12:39:13;97818.75;;;17.90;37.78
3812;BME280;1921;49.368;11.068;2024-02-21T12:41:39;97809.50;;;18.18;37.97
3812;BME280;1921;49.368;11.068;2024-02-21T12:44:09;97809.16;;;18.33;37.69
3812;BME280;1921;49.368;11.068;2024-02-21T12:46:37;97842.16;;;18.90;38.72
3812;BME280;1921;49.368;11.068;2024-02-21T12:49:04;97798.47;;;18.88;37.39
3812;BME280;1921;49.368;11.068;2024-02-21T12:51:33;97809.81;;;19.30;36.18
3812;BME280;1921;49.368;11.068;2024-02-21T12:54:00;97795.00;;;19.29;36.19
3812;BME280;1921;49.368;11.068;2024-02-21T12:56:26;97766.03;;;19.34;35.74
3812;BME280;1921;49.368;11.068;2024-02-21T12:58:57;97776.75;;;18.86;37.06
3812;BME280;1921;49.368;11.068;2024-02-21T13:01:23;97801.06;;;18.46;36.52
3812;BME280;1921;49.368;11.068;2024-02-21T13:03:48;97809.06;;;18.02;38.50
3812;BME280;1921;49.368;11.068;2024-02-21T13:06:14;97780.13;;;17.96;38.55
3812;BME280;1921;49.368;11.068;2024-02-21T13:08:40;97786.09;;;18.40;38.13
3812;BME280;1921;49.368;11.068;2024-02-21T13:11:06;97810.81;;;18.45;37.59
3812;BME280;1921;49.368;11.068;2024-02-21T13:13:32;97762.94;;;18.23;37.28
3812;BME280;1921;49.368;11.068;2024-02-21T13:15:58;97789.22;;;18.48;37.32
3812;BME280;1921;49.368;11.068;2024-02-21T13:18:24;97777.94;;;18.41;37.94